sensor_id;sensor_type;location;lat;lon;timestamp;temperature;humidity
66724;DHT22;53635;48.212;11.530;2022-07-23T01:59:28;17.84;92.78
66724;DHT22;53635;48.212;11.530;2022-07-23T02:01:54;17.70;92.91
66724;DHT22;53635;48.212;11.530;2022-07-23T03:43:43;19.56;99.99
66724;DHT22;53635;48.212;11.530;2022-07-23T03:46:09;20.04;99.99
66724;DHT22;53635;48.212;11.530;2022-07-23T03:48:35;20.17;99.99
66724;DHT22;53635;48.212;11.530;2022-07-23T03:53:25;20.07;99.29
66724;DHT22;53635;48.212;11.530;2022-07-23T03:55:51;20.33;98.41
66724;DHT22;53635;48.212;11.530;2022-07-23T03:58:16;20.62;98.24
66724;DHT22;53635;48.212;11.530;2022-07-23T04:03:07;20.79;98.02
66724;DHT22;53635;48.212;11.530;2022-07-23T04:05:32;20.89;98.30
66724;DHT22;53635;48.212;11.530;2022-07-23T04:07:57;20.56;98.07
66724;DHT22;53635;48.212;11.530;2022-07-23T04:10:23;20.88;98.32
66724;DHT22;53635;48.212;11.530;2022-07-23T04:12:48;20.59;98.44
66724;DHT22;53635;48.212;11.530;2022-07-23T04:15:14;20.72;98.69
66724;DHT22;53635;48.212;11.530;2022-07-23T04:17:39;19.87;98.72
66724;DHT22;53635;48.212;11.530;2022-07-23T04:20:05;19.73;97.53
66724;DHT22;53635;48.212;11.530;2022-07-23T04:22:30;20.20;98.79
66724;DHT22;53635;48.212;11.530;2022-07-23T04:24:56;20.04;97.81
66724;DHT22;53635;48.212;11.530;2022-07-23T04:27:21;20.44;98.27
66724;DHT22;53635;48.212;11.530;2022-07-23T04:29:46;20.45;99.22
66724;DHT22;53635;48.212;11.530;2022-07-23T04:32:12;20.38;99.29
66724;DHT22;53635;48.212;11.530;2022-07-23T04:34:37;20.47;98.85
66724;DHT22;53635;48.212;11.530;2022-07-23T04:37:02;20.65;98.07
66724;DHT22;53635;48.212;11.530;2022-07-23T04:39:28;20.99;98.14
66724;DHT22;53635;48.212;11.530;2022-07-23T04:41:53;19.86;98.12
66724;DHT22;53635;48.212;11.530;2022-07-23T04:44:19;20.06;97.82
66724;DHT22;53635;48.212;11.530;2022-07-23T04:46:44;20.09;96.34
66724;DHT22;53635;48.212;11.530;2022-07-23T04:49:09;20.65;98.00
66724;DHT22;53635;48.212;11.530;2022-07-23T04:51:35;20.61;96.89
66724;DHT22;53635;48.212;11.530;2022-07-23T04:54:00;20.04;98.57
66724;DHT22;53635;48.212;11.530;2022-07-23T04:56:25;20.12;98.07
66724;DHT22;53635;48.212;11.530;2022-07-23T04:58:51;20.10;97.86
66724;DHT22;53635;48.212;11.530;2022-07-23T05:01:16;20.28;98.41
66724;DHT22;53635;48.212;11.530;2022-07-23T05:03:42;20.06;98.42
66724;DHT22;53635;48.212;11.530;2022-07-23T05:06:07;19.83;98.42
66724;DHT22;53635;48.212;11.530;2022-07-23T05:08:33;20.17;99.74
66724;DHT22;53635;48.212;11.530;2022-07-23T05:10:58;20.10;98.71
66724;DHT22;53635;48.212;11.530;2022-07-23T05:13:23;19.77;98.07
66724;DHT22;53635;48.212;11.530;2022-07-23T05:15:49;19.51;98.26
66724;DHT22;53635;48.212;11.530;2022-07-23T05:18:14;19.82;99.79
66724;DHT22;53635;48.212;11.530;2022-07-23T05:40:07;20.07;99.41
66724;DHT22;53635;48.212;11.530;2022-07-23T05:42:34;20.21;99.56
66724;DHT22;53635;48.212;11.530;2022-07-23T05:45:00;20.17;99.99
66724;DHT22;53635;48.212;11.530;2022-07-23T05:47:25;20.21;99.25
66724;DHT22;53635;48.212;11.530;2022-07-23T05:49:51;20.00;99.82
66724;DHT22;53635;48.212;11.530;2022-07-23T05:52:16;19.97;99.70
66724;DHT22;53635;48.212;11.530;2022-07-23T05:54:42;20.28;99.16
66724;DHT22;53635;48.212;11.530;2022-07-23T05:57:07;20.13;99.44
66724;DHT22;53635;48.212;11.530;2022-07-23T05:59:32;20.24;99.45
66724;DHT22;53635;48.212;11.530;2022-07-23T06:01:58;20.23;99.93
66724;DHT22;53635;48.212;11.530;2022-07-23T06:04:23;19.94;98.84
66724;DHT22;53635;48.212;11.530;2022-07-23T06:06:49;19.96;99.10
66724;DHT22;53635;48.212;11.530;2022-07-23T06:09:14;19.84;98.98
66724;DHT22;53635;48.212;11.530;2022-07-23T06:11:40;19.83;99.25
66724;DHT22;53635;48.212;11.530;2022-07-23T06:14:06;19.66;98.89
66724;DHT22;53635;48.212;11.530;2022-07-23T06:16:31;19.55;98.95
66724;DHT22;53635;48.212;11.530;2022-07-23T07:43:48;19.73;99.65
66724;DHT22;53635;48.212;11.530;2022-07-23T07:48:38;19.04;98.83
66724;DHT22;53635;48.212;11.530;2022-07-23T07:55:55;19.39;99.80
66724;DHT22;53635;48.212;11.530;2022-07-23T07:58:20;19.66;99.99
66724;DHT22;53635;48.212;11.530;2022-07-23T08:00:45;19.58;99.99
66724;DHT22;53635;48.212;11.530;2022-07-23T08:03:11;19.41;99.77
66724;DHT22;53635;48.212;11.530;2022-07-23T08:05:36;19.55;99.99
66724;DHT22;53635;48.212;11.530;2022-07-23T08:08:02;19.46;99.99
66724;DHT22;53635;48.212;11.530;2022-07-23T08:10:28;19.59;99.99
66724;DHT22;53635;48.212;11.530;2022-07-23T08:12:57;19.21;99.99
66724;DHT22;53635;48.212;11.530;2022-07-23T08:15:23;18.98;99.99
66724;DHT22;53635;48.212;11.530;2022-07-23T08:35:21;19.87;99.85
66724;DHT22;53635;48.212;11.530;2022-07-23T08:37:47;20.13;99.99
66724;DHT22;53635;48.212;11.530;2022-07-23T08:40:13;20.49;99.99
66724;DHT22;53635;48.212;11.530;2022-07-23T08:45:07;19.92;98.94
66724;DHT22;53635;48.212;11.530;2022-07-23T08:47:34;20.52;99.99
66724;DHT22;53635;48.212;11.530;2022-07-23T08:50:00;23.32;96.04
66724;DHT22;53635;48.212;11.530;2022-07-23T08:52:26;26.69;91.56
66724;DHT22;53635;48.212;11.530;2022-07-23T08:54:51;26.08;92.42
66724;DHT22;53635;48.212;11.530;2022-07-23T09:04:34;25.14;85.94
66724;DHT22;53635;48.212;11.530;2022-07-23T09:07:01;24.48;86.28
66724;DHT22;53635;48.212;11.530;2022-07-23T09:09:26;23.96;87.31
66724;DHT22;53635;48.212;11.530;2022-07-23T09:12:07;23.51;84.39
66724;DHT22;53635;48.212;11.530;2022-07-23T09:14:44;23.54;88.80
66724;DHT22;53635;48.212;11.530;2022-07-23T09:17:13;23.27;90.80
66724;DHT22;53635;48.212;11.530;2022-07-23T09:19:41;22.96;86.38
66724;DHT22;53635;48.212;11.530;2022-07-23T09:22:20;23.34;83.64
66724;DHT22;53635;48.212;11.530;2022-07-23T09:25:11;23.54;86.98
